Ministro Victor Konder International Airport
SBNF : now visible

Airfield :











YOU CAN JOIN US ON...

 
LOGIN :

Register | Disclaimer

   EN    FR    IT 

 









Legend :    VFR   Marginal VFR   IFR   Intensive IFR   Very Intensive IFR
Visi :
Ceiling :
>= 8 km
>= 3000ft
5 to 8 km
1000 to 3000 ft
1500m to 5 km
500 to 1000 ft
800 to 1500m
200 to 500 ft
< 800m
< 200 ft
Symbols :   Thunderstorms  Fog  Heavy snow  Heavy precipitations  Wind > 20 kt






- Airport Elevation : 18 ft
- IATA code : NVT


SBNF - Ministro Victor Konder International

CURRENT METAR :
  • 071100Z 24006KT CAVOK 21/20 Q1016

EXPIRED METARs :
  • 071000Z 25008KT CAVOK 20/19 Q1015
  • 070910Z 25007KT CAVOK 20/19 Q1014

TAF TAF SBNF
Valid from the 07 at 06:00 until the 08 at 06:00 UTC


070300Z 0706/0806 24007KT 9999 SCT010 BKN020 TX24/0717Z TN18/0806Z
PROB40 0706/0710 4000 BR BKN008
BECMG 0711/0713 16015KT SCT020
BECMG 0721/0723 BKN015 RMK PDJ



MET'MAP, your aeronautical weather chart ! - Copyright ORBIFLY December 2007 - Disclaimer

ORBIFLY MET'MAP TEAM :

Programming & Development : Alexandra Zaïnal
Concept & original design : Baudouin d'Aumeries
Assistance for programming : Marc-Olivier Méhu
Technical & hardware support : Manuel Goepfert

Contact : metmap@orbifly.com




SOURCES & CREDITS :

   NOAA       Earth
Advisory